sensor_id;sensor_type;location;lat;lon;timestamp;P1;durP1;ratioP1;P2;durP2;ratioP2
3066;SDS011;1544;48.834;9.194;2023-05-10T00:01:48;0.70;;;0.60;;
3066;SDS011;1544;48.834;9.194;2023-05-10T00:04:24;0.50;;;0.50;;
3066;SDS011;1544;48.834;9.194;2023-05-10T00:07:02;0.60;;;0.50;;
3066;SDS011;1544;48.834;9.194;2023-05-10T00:09:38;0.50;;;0.40;;
3066;SDS011;1544;48.834;9.194;2023-05-10T00:12:15;0.40;;;0.40;;
3066;SDS011;1544;48.834;9.194;2023-05-10T00:14:51;0.87;;;0.40;;
3066;SDS011;1544;48.834;9.194;2023-05-10T00:17:26;0.47;;;0.40;;
3066;SDS011;1544;48.834;9.194;2023-05-10T00:20:03;0.80;;;0.37;;
3066;SDS011;1544;48.834;9.194;2023-05-10T00:22:40;0.40;;;0.40;;
3066;SDS011;1544;48.834;9.194;2023-05-10T00:25:16;1.37;;;1.10;;
3066;SDS011;1544;48.834;9.194;2023-05-10T00:27:52;0.50;;;0.50;;
3066;SDS011;1544;48.834;9.194;2023-05-10T00:30:30;0.60;;;0.47;;
3066;SDS011;1544;48.834;9.194;2023-05-10T00:33:06;0.40;;;0.40;;
3066;SDS011;1544;48.834;9.194;2023-05-10T00:35:42;2.53;;;0.40;;
3066;SDS011;1544;48.834;9.194;2023-05-10T00:38:18;0.40;;;0.40;;
3066;SDS011;1544;48.834;9.194;2023-05-10T00:40:53;0.30;;;0.30;;
3066;SDS011;1544;48.834;9.194;2023-05-10T00:43:36;0.30;;;0.30;;
3066;SDS011;1544;48.834;9.194;2023-05-10T00:46:11;0.83;;;0.57;;
3066;SDS011;1544;48.834;9.194;2023-05-10T00:48:49;0.43;;;0.30;;
3066;SDS011;1544;48.834;9.194;2023-05-10T00:51:25;2.83;;;0.40;;
3066;SDS011;1544;48.834;9.194;2023-05-10T00:54:01;0.40;;;0.40;;
3066;SDS011;1544;48.834;9.194;2023-05-10T00:56:38;0.40;;;0.40;;
3066;SDS011;1544;48.834;9.194;2023-05-10T00:59:15;0.90;;;0.50;;
3066;SDS011;1544;48.834;9.194;2023-05-10T01:01:52;0.30;;;0.30;;
3066;SDS011;1544;48.834;9.194;2023-05-10T01:04:28;0.40;;;0.40;;
3066;SDS011;1544;48.834;9.194;2023-05-10T01:07:05;3.03;;;0.30;;
3066;SDS011;1544;48.834;9.194;2023-05-10T01:09:41;0.40;;;0.40;;
3066;SDS011;1544;48.834;9.194;2023-05-10T01:12:19;0.50;;;0.40;;
3066;SDS011;1544;48.834;9.194;2023-05-10T01:14:56;0.30;;;0.30;;
3066;SDS011;1544;48.834;9.194;2023-05-10T01:17:33;0.40;;;0.40;;
3066;SDS011;1544;48.834;9.194;2023-05-10T01:20:11;0.40;;;0.40;;
3066;SDS011;1544;48.834;9.194;2023-05-10T01:26:11;0.67;;;0.40;;
3066;SDS011;1544;48.834;9.194;2023-05-10T01:35:07;0.60;;;0.60;;
3066;SDS011;1544;48.834;9.194;2023-05-10T01:37:58;0.60;;;0.60;;
3066;SDS011;1544;48.834;9.194;2023-05-10T01:40:52;0.50;;;0.50;;
3066;SDS011;1544;48.834;9.194;2023-05-10T01:47:10;2.33;;;1.57;;
3066;SDS011;1544;48.834;9.194;2023-05-10T01:49:50;0.83;;;0.50;;
3066;SDS011;1544;48.834;9.194;2023-05-10T01:52:31;0.60;;;0.57;;
3066;SDS011;1544;48.834;9.194;2023-05-10T01:55:13;0.60;;;0.60;;
3066;SDS011;1544;48.834;9.194;2023-05-10T01:57:52;0.87;;;0.70;;
3066;SDS011;1544;48.834;9.194;2023-05-10T02:00:39;0.53;;;0.53;;
3066;SDS011;1544;48.834;9.194;2023-05-10T02:03:20;0.60;;;0.60;;
3066;SDS011;1544;48.834;9.194;2023-05-10T02:05:59;0.57;;;0.57;;
3066;SDS011;1544;48.834;9.194;2023-05-10T02:08:35;0.50;;;0.50;;
3066;SDS011;1544;48.834;9.194;2023-05-10T02:11:13;0.60;;;0.60;;
3066;SDS011;1544;48.834;9.194;2023-05-10T02:13:50;0.70;;;0.67;;
3066;SDS011;1544;48.834;9.194;2023-05-10T02:16:27;0.70;;;0.70;;
3066;SDS011;1544;48.834;9.194;2023-05-10T02:19:07;0.60;;;0.60;;
3066;SDS011;1544;48.834;9.194;2023-05-10T02:21:45;0.60;;;0.60;;
3066;SDS011;1544;48.834;9.194;2023-05-10T02:24:22;2.00;;;0.70;;
3066;SDS011;1544;48.834;9.194;2023-05-10T02:27:00;0.90;;;0.53;;
3066;SDS011;1544;48.834;9.194;2023-05-10T02:29:39;0.60;;;0.60;;
3066;SDS011;1544;48.834;9.194;2023-05-10T02:32:16;0.83;;;0.67;;
3066;SDS011;1544;48.834;9.194;2023-05-10T02:34:54;1.47;;;0.60;;
3066;SDS011;1544;48.834;9.194;2023-05-10T02:37:30;0.80;;;0.80;;
3066;SDS011;1544;48.834;9.194;2023-05-10T02:40:08;0.60;;;0.60;;
3066;SDS011;1544;48.834;9.194;2023-05-10T02:42:47;0.70;;;0.70;;
3066;SDS011;1544;48.834;9.194;2023-05-10T02:45:24;0.80;;;0.50;;
3066;SDS011;1544;48.834;9.194;2023-05-10T02:48:04;0.60;;;0.60;;
3066;SDS011;1544;48.834;9.194;2023-05-10T02:50:41;0.60;;;0.60;;
3066;SDS011;1544;48.834;9.194;2023-05-10T02:53:25;0.70;;;0.70;;
3066;SDS011;1544;48.834;9.194;2023-05-10T02:56:13;0.90;;;0.90;;
3066;SDS011;1544;48.834;9.194;2023-05-10T02:59:01;0.70;;;0.70;;
3066;SDS011;1544;48.834;9.194;2023-05-10T03:01:37;0.70;;;0.70;;
3066;SDS011;1544;48.834;9.194;2023-05-10T03:04:14;0.80;;;0.80;;
3066;SDS011;1544;48.834;9.194;2023-05-10T03:06:50;0.93;;;0.80;;
3066;SDS011;1544;48.834;9.194;2023-05-10T03:09:27;1.00;;;1.00;;
3066;SDS011;1544;48.834;9.194;2023-05-10T03:12:06;1.33;;;1.23;;
3066;SDS011;1544;48.834;9.194;2023-05-10T03:18:36;2.57;;;2.37;;
3066;SDS011;1544;48.834;9.194;2023-05-10T03:21:46;4.30;;;3.90;;
3066;SDS011;1544;48.834;9.194;2023-05-10T03:24:27;3.10;;;2.90;;
3066;SDS011;1544;48.834;9.194;2023-05-10T03:27:06;2.30;;;2.20;;
3066;SDS011;1544;48.834;9.194;2023-05-10T03:29:43;1.97;;;1.87;;
3066;SDS011;1544;48.834;9.194;2023-05-10T03:32:22;1.90;;;1.80;;
3066;SDS011;1544;48.834;9.194;2023-05-10T03:34:58;1.80;;;1.70;;
3066;SDS011;1544;48.834;9.194;2023-05-10T03:37:34;2.50;;;1.40;;
3066;SDS011;1544;48.834;9.194;2023-05-10T03:40:10;1.27;;;1.20;;
3066;SDS011;1544;48.834;9.194;2023-05-10T03:42:49;1.60;;;1.10;;
3066;SDS011;1544;48.834;9.194;2023-05-10T03:45:25;0.87;;;0.87;;
3066;SDS011;1544;48.834;9.194;2023-05-10T03:48:02;1.50;;;0.90;;
3066;SDS011;1544;48.834;9.194;2023-05-10T03:50:39;1.20;;;1.10;;
3066;SDS011;1544;48.834;9.194;2023-05-10T03:53:15;1.00;;;1.00;;
3066;SDS011;1544;48.834;9.194;2023-05-10T03:55:51;0.87;;;0.87;;
3066;SDS011;1544;48.834;9.194;2023-05-10T03:58:27;1.23;;;1.13;;
3066;SDS011;1544;48.834;9.194;2023-05-10T04:01:03;1.07;;;1.07;;
3066;SDS011;1544;48.834;9.194;2023-05-10T04:03:40;0.97;;;0.97;;
3066;SDS011;1544;48.834;9.194;2023-05-10T04:06:17;1.00;;;1.00;;
3066;SDS011;1544;48.834;9.194;2023-05-10T04:08:53;1.20;;;1.10;;
3066;SDS011;1544;48.834;9.194;2023-05-10T04:11:29;1.00;;;1.00;;
3066;SDS011;1544;48.834;9.194;2023-05-10T04:14:05;1.70;;;1.27;;
3066;SDS011;1544;48.834;9.194;2023-05-10T04:16:41;1.40;;;0.87;;
3066;SDS011;1544;48.834;9.194;2023-05-10T04:19:18;1.00;;;0.87;;
3066;SDS011;1544;48.834;9.194;2023-05-10T04:21:54;1.00;;;1.00;;
3066;SDS011;1544;48.834;9.194;2023-05-10T04:24:30;1.37;;;1.27;;
3066;SDS011;1544;48.834;9.194;2023-05-10T04:27:05;1.30;;;1.20;;
3066;SDS011;1544;48.834;9.194;2023-05-10T04:29:42;1.23;;;1.03;;
3066;SDS011;1544;48.834;9.194;2023-05-10T04:32:19;1.00;;;1.00;;
3066;SDS011;1544;48.834;9.194;2023-05-10T04:34:56;1.40;;;1.30;;
3066;SDS011;1544;48.834;9.194;2023-05-10T04:37:32;1.20;;;1.03;;
3066;SDS011;1544;48.834;9.194;2023-05-10T04:40:08;1.83;;;1.00;;
3066;SDS011;1544;48.834;9.194;2023-05-10T04:42:45;1.00;;;1.00;;
3066;SDS011;1544;48.834;9.194;2023-05-10T04:45:21;1.00;;;1.00;;
3066;SDS011;1544;48.834;9.194;2023-05-10T04:47:57;1.10;;;0.90;;
3066;SDS011;1544;48.834;9.194;2023-05-10T04:50:33;3.73;;;0.90;;
3066;SDS011;1544;48.834;9.194;2023-05-10T04:53:09;0.90;;;0.90;;
3066;SDS011;1544;48.834;9.194;2023-05-10T04:55:45;1.07;;;0.70;;
3066;SDS011;1544;48.834;9.194;2023-05-10T04:58:21;4.00;;;0.80;;
3066;SDS011;1544;48.834;9.194;2023-05-10T05:01:04;0.93;;;0.93;;
3066;SDS011;1544;48.834;9.194;2023-05-10T05:03:43;0.90;;;0.90;;
3066;SDS011;1544;48.834;9.194;2023-05-10T05:06:20;0.70;;;0.70;;
3066;SDS011;1544;48.834;9.194;2023-05-10T05:09:00;1.10;;;0.90;;
3066;SDS011;1544;48.834;9.194;2023-05-10T05:11:36;1.73;;;0.90;;
3066;SDS011;1544;48.834;9.194;2023-05-10T05:14:12;0.80;;;0.80;;
3066;SDS011;1544;48.834;9.194;2023-05-10T05:16:49;1.00;;;0.90;;
3066;SDS011;1544;48.834;9.194;2023-05-10T05:19:25;1.57;;;1.10;;
3066;SDS011;1544;48.834;9.194;2023-05-10T05:22:01;1.00;;;1.00;;
3066;SDS011;1544;48.834;9.194;2023-05-10T05:24:37;0.93;;;0.93;;
3066;SDS011;1544;48.834;9.194;2023-05-10T05:27:16;0.73;;;0.70;;
3066;SDS011;1544;48.834;9.194;2023-05-10T05:29:53;0.80;;;0.80;;
3066;SDS011;1544;48.834;9.194;2023-05-10T05:32:29;1.00;;;1.00;;
3066;SDS011;1544;48.834;9.194;2023-05-10T05:35:05;1.00;;;0.90;;
3066;SDS011;1544;48.834;9.194;2023-05-10T05:37:42;1.90;;;0.80;;
3066;SDS011;1544;48.834;9.194;2023-05-10T05:40:18;0.80;;;0.80;;
3066;SDS011;1544;48.834;9.194;2023-05-10T05:42:53;0.87;;;0.87;;
3066;SDS011;1544;48.834;9.194;2023-05-10T05:45:29;1.17;;;0.90;;
3066;SDS011;1544;48.834;9.194;2023-05-10T05:48:05;0.70;;;0.70;;
3066;SDS011;1544;48.834;9.194;2023-05-10T05:50:41;0.70;;;0.70;;
3066;SDS011;1544;48.834;9.194;2023-05-10T05:53:17;1.77;;;0.80;;
3066;SDS011;1544;48.834;9.194;2023-05-10T05:55:54;1.50;;;0.93;;
3066;SDS011;1544;48.834;9.194;2023-05-10T05:58:32;0.90;;;0.90;;
3066;SDS011;1544;48.834;9.194;2023-05-10T06:01:08;1.20;;;0.83;;
3066;SDS011;1544;48.834;9.194;2023-05-10T06:03:44;1.80;;;0.90;;
3066;SDS011;1544;48.834;9.194;2023-05-10T06:06:20;1.00;;;0.90;;
3066;SDS011;1544;48.834;9.194;2023-05-10T06:08:56;1.10;;;0.93;;
3066;SDS011;1544;48.834;9.194;2023-05-10T06:11:31;1.33;;;1.10;;
3066;SDS011;1544;48.834;9.194;2023-05-10T06:14:08;0.97;;;0.97;;
3066;SDS011;1544;48.834;9.194;2023-05-10T06:16:44;1.13;;;1.00;;
3066;SDS011;1544;48.834;9.194;2023-05-10T06:19:20;0.90;;;0.90;;
3066;SDS011;1544;48.834;9.194;2023-05-10T06:21:56;0.80;;;0.80;;
3066;SDS011;1544;48.834;9.194;2023-05-10T06:24:32;0.90;;;0.90;;
3066;SDS011;1544;48.834;9.194;2023-05-10T06:27:08;0.80;;;0.80;;
3066;SDS011;1544;48.834;9.194;2023-05-10T06:29:44;0.97;;;0.97;;
3066;SDS011;1544;48.834;9.194;2023-05-10T06:32:20;1.03;;;1.00;;
3066;SDS011;1544;48.834;9.194;2023-05-10T06:34:55;1.57;;;0.90;;
3066;SDS011;1544;48.834;9.194;2023-05-10T06:37:31;0.93;;;0.90;;
3066;SDS011;1544;48.834;9.194;2023-05-10T06:40:07;1.10;;;1.00;;
3066;SDS011;1544;48.834;9.194;2023-05-10T06:42:44;1.10;;;1.00;;
3066;SDS011;1544;48.834;9.194;2023-05-10T06:45:21;0.83;;;0.83;;
3066;SDS011;1544;48.834;9.194;2023-05-10T06:47:57;1.03;;;0.97;;
3066;SDS011;1544;48.834;9.194;2023-05-10T06:50:33;0.90;;;0.90;;
3066;SDS011;1544;48.834;9.194;2023-05-10T06:53:09;1.63;;;1.00;;
3066;SDS011;1544;48.834;9.194;2023-05-10T06:55:45;0.90;;;0.80;;
3066;SDS011;1544;48.834;9.194;2023-05-10T06:58:21;1.00;;;0.90;;
3066;SDS011;1544;48.834;9.194;2023-05-10T07:01:03;2.77;;;0.90;;
3066;SDS011;1544;48.834;9.194;2023-05-10T07:03:40;0.80;;;0.80;;
3066;SDS011;1544;48.834;9.194;2023-05-10T07:06:16;0.80;;;0.70;;
3066;SDS011;1544;48.834;9.194;2023-05-10T07:09:06;0.83;;;0.80;;
3066;SDS011;1544;48.834;9.194;2023-05-10T07:11:43;1.60;;;0.70;;
3066;SDS011;1544;48.834;9.194;2023-05-10T07:14:18;0.90;;;0.90;;
3066;SDS011;1544;48.834;9.194;2023-05-10T07:16:54;0.90;;;0.90;;
3066;SDS011;1544;48.834;9.194;2023-05-10T07:19:30;2.03;;;0.70;;
3066;SDS011;1544;48.834;9.194;2023-05-10T07:22:07;0.80;;;0.80;;
3066;SDS011;1544;48.834;9.194;2023-05-10T07:24:43;1.90;;;0.83;;
3066;SDS011;1544;48.834;9.194;2023-05-10T07:27:19;2.40;;;0.90;;
3066;SDS011;1544;48.834;9.194;2023-05-10T07:29:55;0.80;;;0.80;;
3066;SDS011;1544;48.834;9.194;2023-05-10T07:32:31;0.70;;;0.70;;
3066;SDS011;1544;48.834;9.194;2023-05-10T07:35:08;0.70;;;0.70;;
3066;SDS011;1544;48.834;9.194;2023-05-10T07:37:44;0.70;;;0.70;;
3066;SDS011;1544;48.834;9.194;2023-05-10T07:40:20;0.67;;;0.67;;
3066;SDS011;1544;48.834;9.194;2023-05-10T07:42:56;0.70;;;0.70;;
3066;SDS011;1544;48.834;9.194;2023-05-10T07:45:32;1.27;;;0.60;;
3066;SDS011;1544;48.834;9.194;2023-05-10T07:48:09;1.57;;;0.90;;
3066;SDS011;1544;48.834;9.194;2023-05-10T07:50:45;0.70;;;0.70;;
3066;SDS011;1544;48.834;9.194;2023-05-10T07:53:21;0.97;;;0.70;;
3066;SDS011;1544;48.834;9.194;2023-05-10T07:55:57;0.60;;;0.60;;
3066;SDS011;1544;48.834;9.194;2023-05-10T07:58:33;0.70;;;0.70;;
3066;SDS011;1544;48.834;9.194;2023-05-10T08:01:09;0.77;;;0.73;;
3066;SDS011;1544;48.834;9.194;2023-05-10T08:03:45;1.07;;;0.70;;
3066;SDS011;1544;48.834;9.194;2023-05-10T08:06:21;1.00;;;0.60;;
3066;SDS011;1544;48.834;9.194;2023-05-10T08:08:57;0.67;;;0.67;;
3066;SDS011;1544;48.834;9.194;2023-05-10T08:11:33;0.60;;;0.60;;
3066;SDS011;1544;48.834;9.194;2023-05-10T08:14:09;1.03;;;0.60;;
3066;SDS011;1544;48.834;9.194;2023-05-10T08:16:45;0.50;;;0.50;;
3066;SDS011;1544;48.834;9.194;2023-05-10T08:19:21;0.60;;;0.60;;
3066;SDS011;1544;48.834;9.194;2023-05-10T08:21:58;1.03;;;0.70;;
3066;SDS011;1544;48.834;9.194;2023-05-10T08:24:33;0.60;;;0.60;;
3066;SDS011;1544;48.834;9.194;2023-05-10T08:27:13;0.70;;;0.70;;
3066;SDS011;1544;48.834;9.194;2023-05-10T08:29:49;0.73;;;0.50;;
3066;SDS011;1544;48.834;9.194;2023-05-10T08:32:25;1.60;;;1.10;;
3066;SDS011;1544;48.834;9.194;2023-05-10T08:35:01;0.70;;;0.60;;
3066;SDS011;1544;48.834;9.194;2023-05-10T08:37:37;0.50;;;0.50;;
3066;SDS011;1544;48.834;9.194;2023-05-10T08:40:13;0.83;;;0.60;;
3066;SDS011;1544;48.834;9.194;2023-05-10T08:42:55;0.60;;;0.60;;
3066;SDS011;1544;48.834;9.194;2023-05-10T08:45:44;0.50;;;0.50;;
3066;SDS011;1544;48.834;9.194;2023-05-10T08:48:23;1.70;;;0.50;;
3066;SDS011;1544;48.834;9.194;2023-05-10T08:51:00;1.67;;;0.70;;
3066;SDS011;1544;48.834;9.194;2023-05-10T08:53:37;0.50;;;0.50;;
3066;SDS011;1544;48.834;9.194;2023-05-10T08:56:13;0.50;;;0.50;;
3066;SDS011;1544;48.834;9.194;2023-05-10T08:58:52;0.60;;;0.40;;
3066;SDS011;1544;48.834;9.194;2023-05-10T09:01:28;2.20;;;0.60;;
3066;SDS011;1544;48.834;9.194;2023-05-10T09:04:08;0.50;;;0.50;;
3066;SDS011;1544;48.834;9.194;2023-05-10T09:06:44;1.07;;;0.40;;
3066;SDS011;1544;48.834;9.194;2023-05-10T09:09:20;0.93;;;0.73;;
3066;SDS011;1544;48.834;9.194;2023-05-10T09:11:57;0.50;;;0.50;;
3066;SDS011;1544;48.834;9.194;2023-05-10T09:14:33;0.50;;;0.50;;
3066;SDS011;1544;48.834;9.194;2023-05-10T09:17:11;0.60;;;0.60;;
3066;SDS011;1544;48.834;9.194;2023-05-10T09:19:47;0.50;;;0.50;;
3066;SDS011;1544;48.834;9.194;2023-05-10T09:22:23;1.17;;;0.40;;
3066;SDS011;1544;48.834;9.194;2023-05-10T09:25:03;0.50;;;0.40;;
3066;SDS011;1544;48.834;9.194;2023-05-10T09:27:49;0.93;;;0.50;;
3066;SDS011;1544;48.834;9.194;2023-05-10T09:30:29;0.40;;;0.40;;
3066;SDS011;1544;48.834;9.194;2023-05-10T09:33:06;1.37;;;0.40;;
3066;SDS011;1544;48.834;9.194;2023-05-10T09:35:42;2.00;;;0.43;;
3066;SDS011;1544;48.834;9.194;2023-05-10T09:38:18;0.60;;;0.50;;
3066;SDS011;1544;48.834;9.194;2023-05-10T09:40:54;0.60;;;0.50;;
3066;SDS011;1544;48.834;9.194;2023-05-10T09:43:37;0.40;;;0.40;;
3066;SDS011;1544;48.834;9.194;2023-05-10T09:46:13;0.33;;;0.33;;
3066;SDS011;1544;48.834;9.194;2023-05-10T09:48:51;1.03;;;0.50;;
3066;SDS011;1544;48.834;9.194;2023-05-10T09:51:27;0.90;;;0.43;;
3066;SDS011;1544;48.834;9.194;2023-05-10T09:54:13;0.50;;;0.50;;
3066;SDS011;1544;48.834;9.194;2023-05-10T09:56:51;0.70;;;0.53;;
3066;SDS011;1544;48.834;9.194;2023-05-10T09:59:27;0.40;;;0.40;;
3066;SDS011;1544;48.834;9.194;2023-05-10T10:02:04;0.60;;;0.50;;
3066;SDS011;1544;48.834;9.194;2023-05-10T10:04:40;0.77;;;0.70;;
3066;SDS011;1544;48.834;9.194;2023-05-10T10:07:17;0.60;;;0.60;;
3066;SDS011;1544;48.834;9.194;2023-05-10T10:09:59;0.80;;;0.80;;
3066;SDS011;1544;48.834;9.194;2023-05-10T10:12:36;1.07;;;0.50;;
3066;SDS011;1544;48.834;9.194;2023-05-10T10:15:12;1.00;;;0.50;;
3066;SDS011;1544;48.834;9.194;2023-05-10T10:17:52;0.77;;;0.60;;
3066;SDS011;1544;48.834;9.194;2023-05-10T10:20:29;0.97;;;0.57;;
3066;SDS011;1544;48.834;9.194;2023-05-10T10:23:05;0.57;;;0.50;;
3066;SDS011;1544;48.834;9.194;2023-05-10T10:25:41;0.90;;;0.50;;
3066;SDS011;1544;48.834;9.194;2023-05-10T10:31:12;0.60;;;0.50;;
3066;SDS011;1544;48.834;9.194;2023-05-10T10:34:33;0.83;;;0.40;;
3066;SDS011;1544;48.834;9.194;2023-05-10T10:37:08;0.50;;;0.50;;
3066;SDS011;1544;48.834;9.194;2023-05-10T10:39:44;0.97;;;0.40;;
3066;SDS011;1544;48.834;9.194;2023-05-10T10:45:22;0.60;;;0.40;;
3066;SDS011;1544;48.834;9.194;2023-05-10T10:50:57;0.50;;;0.40;;
3066;SDS011;1544;48.834;9.194;2023-05-10T10:53:33;0.80;;;0.50;;
3066;SDS011;1544;48.834;9.194;2023-05-10T10:56:10;4.53;;;0.40;;
3066;SDS011;1544;48.834;9.194;2023-05-10T10:58:51;0.80;;;0.40;;
3066;SDS011;1544;48.834;9.194;2023-05-10T11:01:34;0.77;;;0.40;;
3066;SDS011;1544;48.834;9.194;2023-05-10T11:06:46;0.50;;;0.40;;
3066;SDS011;1544;48.834;9.194;2023-05-10T11:09:22;0.87;;;0.40;;
3066;SDS011;1544;48.834;9.194;2023-05-10T11:12:07;0.50;;;0.50;;
3066;SDS011;1544;48.834;9.194;2023-05-10T11:14:49;0.60;;;0.40;;
3066;SDS011;1544;48.834;9.194;2023-05-10T11:17:28;0.60;;;0.40;;
3066;SDS011;1544;48.834;9.194;2023-05-10T11:20:09;0.40;;;0.40;;
3066;SDS011;1544;48.834;9.194;2023-05-10T11:22:49;0.40;;;0.40;;
3066;SDS011;1544;48.834;9.194;2023-05-10T11:25:27;0.80;;;0.50;;
3066;SDS011;1544;48.834;9.194;2023-05-10T11:28:03;1.73;;;0.80;;
3066;SDS011;1544;48.834;9.194;2023-05-10T11:30:41;1.07;;;0.53;;
3066;SDS011;1544;48.834;9.194;2023-05-10T11:33:19;0.73;;;0.47;;
3066;SDS011;1544;48.834;9.194;2023-05-10T11:35:55;2.27;;;0.60;;
3066;SDS011;1544;48.834;9.194;2023-05-10T11:38:32;0.63;;;0.60;;
3066;SDS011;1544;48.834;9.194;2023-05-10T11:41:08;0.60;;;0.53;;
3066;SDS011;1544;48.834;9.194;2023-05-10T11:43:46;0.70;;;0.70;;
3066;SDS011;1544;48.834;9.194;2023-05-10T11:46:27;1.13;;;0.40;;
3066;SDS011;1544;48.834;9.194;2023-05-10T11:49:05;0.60;;;0.50;;
3066;SDS011;1544;48.834;9.194;2023-05-10T11:51:42;0.50;;;0.50;;
3066;SDS011;1544;48.834;9.194;2023-05-10T11:54:18;0.60;;;0.50;;
3066;SDS011;1544;48.834;9.194;2023-05-10T11:56:54;1.03;;;0.60;;
3066;SDS011;1544;48.834;9.194;2023-05-10T11:59:30;2.20;;;0.70;;
3066;SDS011;1544;48.834;9.194;2023-05-10T12:02:06;1.13;;;0.60;;
3066;SDS011;1544;48.834;9.194;2023-05-10T12:04:42;1.93;;;0.80;;
3066;SDS011;1544;48.834;9.194;2023-05-10T12:07:19;1.33;;;0.80;;
3066;SDS011;1544;48.834;9.194;2023-05-10T12:10:08;1.27;;;0.60;;
3066;SDS011;1544;48.834;9.194;2023-05-10T12:12:53;1.07;;;0.70;;
3066;SDS011;1544;48.834;9.194;2023-05-10T12:15:28;3.80;;;1.93;;
3066;SDS011;1544;48.834;9.194;2023-05-10T12:18:04;0.93;;;0.80;;
3066;SDS011;1544;48.834;9.194;2023-05-10T12:20:41;1.43;;;0.70;;
3066;SDS011;1544;48.834;9.194;2023-05-10T12:23:17;0.60;;;0.60;;
3066;SDS011;1544;48.834;9.194;2023-05-10T12:26:01;0.80;;;0.70;;
3066;SDS011;1544;48.834;9.194;2023-05-10T12:28:39;2.13;;;0.63;;
3066;SDS011;1544;48.834;9.194;2023-05-10T12:31:15;1.47;;;0.57;;
3066;SDS011;1544;48.834;9.194;2023-05-10T12:33:51;1.00;;;0.70;;
3066;SDS011;1544;48.834;9.194;2023-05-10T12:36:27;2.10;;;0.70;;
3066;SDS011;1544;48.834;9.194;2023-05-10T12:39:03;0.70;;;0.70;;
3066;SDS011;1544;48.834;9.194;2023-05-10T12:41:40;1.17;;;0.70;;
3066;SDS011;1544;48.834;9.194;2023-05-10T12:44:18;0.90;;;0.80;;
3066;SDS011;1544;48.834;9.194;2023-05-10T12:46:54;3.13;;;0.67;;
3066;SDS011;1544;48.834;9.194;2023-05-10T12:49:30;1.13;;;0.87;;
3066;SDS011;1544;48.834;9.194;2023-05-10T12:52:06;0.63;;;0.57;;
3066;SDS011;1544;48.834;9.194;2023-05-10T12:54:42;1.27;;;0.73;;
3066;SDS011;1544;48.834;9.194;2023-05-10T12:57:19;1.07;;;0.70;;
3066;SDS011;1544;48.834;9.194;2023-05-10T12:59:56;0.90;;;0.70;;
3066;SDS011;1544;48.834;9.194;2023-05-10T13:02:32;2.47;;;0.63;;
3066;SDS011;1544;48.834;9.194;2023-05-10T13:05:09;0.50;;;0.50;;
3066;SDS011;1544;48.834;9.194;2023-05-10T13:07:46;0.80;;;0.80;;
3066;SDS011;1544;48.834;9.194;2023-05-10T13:10:22;1.77;;;0.80;;
3066;SDS011;1544;48.834;9.194;2023-05-10T13:12:59;1.07;;;0.60;;
3066;SDS011;1544;48.834;9.194;2023-05-10T13:15:35;1.27;;;0.60;;
3066;SDS011;1544;48.834;9.194;2023-05-10T13:18:11;0.60;;;0.50;;
3066;SDS011;1544;48.834;9.194;2023-05-10T13:20:47;0.87;;;0.60;;
3066;SDS011;1544;48.834;9.194;2023-05-10T13:23:24;1.00;;;0.60;;
3066;SDS011;1544;48.834;9.194;2023-05-10T13:26:00;0.77;;;0.77;;
3066;SDS011;1544;48.834;9.194;2023-05-10T13:28:36;0.70;;;0.67;;
3066;SDS011;1544;48.834;9.194;2023-05-10T13:31:14;0.57;;;0.57;;
3066;SDS011;1544;48.834;9.194;2023-05-10T13:33:50;0.93;;;0.70;;
3066;SDS011;1544;48.834;9.194;2023-05-10T13:36:26;1.07;;;0.70;;
3066;SDS011;1544;48.834;9.194;2023-05-10T13:39:02;0.70;;;0.60;;
3066;SDS011;1544;48.834;9.194;2023-05-10T13:41:40;1.10;;;0.70;;
3066;SDS011;1544;48.834;9.194;2023-05-10T13:44:16;1.27;;;0.67;;
3066;SDS011;1544;48.834;9.194;2023-05-10T13:46:52;0.70;;;0.60;;
3066;SDS011;1544;48.834;9.194;2023-05-10T13:49:28;0.70;;;0.67;;
3066;SDS011;1544;48.834;9.194;2023-05-10T13:52:04;1.23;;;0.70;;
3066;SDS011;1544;48.834;9.194;2023-05-10T13:54:42;0.50;;;0.50;;
3066;SDS011;1544;48.834;9.194;2023-05-10T13:57:21;0.53;;;0.53;;
3066;SDS011;1544;48.834;9.194;2023-05-10T13:59:58;0.80;;;0.70;;
3066;SDS011;1544;48.834;9.194;2023-05-10T14:02:34;1.00;;;0.70;;
3066;SDS011;1544;48.834;9.194;2023-05-10T14:05:10;3.00;;;0.90;;
3066;SDS011;1544;48.834;9.194;2023-05-10T14:07:47;1.30;;;0.80;;
3066;SDS011;1544;48.834;9.194;2023-05-10T14:10:23;0.60;;;0.60;;
3066;SDS011;1544;48.834;9.194;2023-05-10T14:12:59;1.10;;;0.60;;
3066;SDS011;1544;48.834;9.194;2023-05-10T14:15:35;1.70;;;0.70;;
3066;SDS011;1544;48.834;9.194;2023-05-10T14:18:11;1.63;;;0.60;;
3066;SDS011;1544;48.834;9.194;2023-05-10T14:20:47;0.67;;;0.63;;
3066;SDS011;1544;48.834;9.194;2023-05-10T14:23:23;0.60;;;0.60;;
3066;SDS011;1544;48.834;9.194;2023-05-10T14:25:59;1.07;;;0.60;;
3066;SDS011;1544;48.834;9.194;2023-05-10T14:28:38;1.07;;;0.63;;
3066;SDS011;1544;48.834;9.194;2023-05-10T14:31:15;0.60;;;0.60;;
3066;SDS011;1544;48.834;9.194;2023-05-10T14:33:52;0.80;;;0.60;;
3066;SDS011;1544;48.834;9.194;2023-05-10T14:36:28;0.60;;;0.60;;
3066;SDS011;1544;48.834;9.194;2023-05-10T14:39:04;0.50;;;0.50;;
3066;SDS011;1544;48.834;9.194;2023-05-10T14:41:41;0.90;;;0.63;;
3066;SDS011;1544;48.834;9.194;2023-05-10T14:44:19;3.60;;;0.70;;
3066;SDS011;1544;48.834;9.194;2023-05-10T14:46:56;0.60;;;0.60;;
3066;SDS011;1544;48.834;9.194;2023-05-10T14:49:32;0.50;;;0.50;;
3066;SDS011;1544;48.834;9.194;2023-05-10T14:52:09;1.10;;;0.77;;
3066;SDS011;1544;48.834;9.194;2023-05-10T14:54:47;1.17;;;0.60;;
3066;SDS011;1544;48.834;9.194;2023-05-10T14:57:23;2.30;;;0.60;;
3066;SDS011;1544;48.834;9.194;2023-05-10T14:59:59;0.73;;;0.60;;
3066;SDS011;1544;48.834;9.194;2023-05-10T15:02:35;0.80;;;0.80;;
3066;SDS011;1544;48.834;9.194;2023-05-10T15:05:12;0.87;;;0.70;;
3066;SDS011;1544;48.834;9.194;2023-05-10T15:07:49;0.83;;;0.60;;
3066;SDS011;1544;48.834;9.194;2023-05-10T15:10:25;0.60;;;0.60;;
3066;SDS011;1544;48.834;9.194;2023-05-10T15:13:01;1.00;;;0.70;;
3066;SDS011;1544;48.834;9.194;2023-05-10T15:15:39;0.60;;;0.60;;
3066;SDS011;1544;48.834;9.194;2023-05-10T15:18:15;1.13;;;0.60;;
3066;SDS011;1544;48.834;9.194;2023-05-10T15:20:51;0.60;;;0.60;;
3066;SDS011;1544;48.834;9.194;2023-05-10T15:23:27;1.10;;;0.80;;
3066;SDS011;1544;48.834;9.194;2023-05-10T15:26:04;1.00;;;0.70;;
3066;SDS011;1544;48.834;9.194;2023-05-10T15:28:41;0.53;;;0.53;;
3066;SDS011;1544;48.834;9.194;2023-05-10T15:31:17;1.13;;;0.60;;
3066;SDS011;1544;48.834;9.194;2023-05-10T15:33:56;1.23;;;0.70;;
3066;SDS011;1544;48.834;9.194;2023-05-10T15:36:36;0.60;;;0.60;;
3066;SDS011;1544;48.834;9.194;2023-05-10T15:39:12;0.77;;;0.77;;
3066;SDS011;1544;48.834;9.194;2023-05-10T15:41:48;0.50;;;0.50;;
3066;SDS011;1544;48.834;9.194;2023-05-10T15:44:24;0.50;;;0.50;;
3066;SDS011;1544;48.834;9.194;2023-05-10T15:47:00;0.70;;;0.60;;
3066;SDS011;1544;48.834;9.194;2023-05-10T15:49:38;0.80;;;0.80;;
3066;SDS011;1544;48.834;9.194;2023-05-10T15:52:13;0.70;;;0.70;;
3066;SDS011;1544;48.834;9.194;2023-05-10T15:54:50;0.60;;;0.50;;
3066;SDS011;1544;48.834;9.194;2023-05-10T15:57:26;0.90;;;0.70;;
3066;SDS011;1544;48.834;9.194;2023-05-10T16:00:02;1.07;;;0.60;;
3066;SDS011;1544;48.834;9.194;2023-05-10T16:02:46;3.40;;;0.60;;
3066;SDS011;1544;48.834;9.194;2023-05-10T16:05:22;0.70;;;0.70;;
3066;SDS011;1544;48.834;9.194;2023-05-10T16:07:59;2.80;;;0.87;;
3066;SDS011;1544;48.834;9.194;2023-05-10T16:10:36;0.70;;;0.50;;
3066;SDS011;1544;48.834;9.194;2023-05-10T16:13:12;1.40;;;0.50;;
3066;SDS011;1544;48.834;9.194;2023-05-10T16:15:49;1.57;;;0.70;;
3066;SDS011;1544;48.834;9.194;2023-05-10T16:18:25;0.60;;;0.50;;
3066;SDS011;1544;48.834;9.194;2023-05-10T16:21:01;0.73;;;0.50;;
3066;SDS011;1544;48.834;9.194;2023-05-10T16:23:37;1.10;;;0.67;;
3066;SDS011;1544;48.834;9.194;2023-05-10T16:26:14;0.50;;;0.50;;
3066;SDS011;1544;48.834;9.194;2023-05-10T16:28:50;1.07;;;0.50;;
3066;SDS011;1544;48.834;9.194;2023-05-10T16:31:26;0.60;;;0.60;;
3066;SDS011;1544;48.834;9.194;2023-05-10T16:34:02;1.40;;;0.70;;
3066;SDS011;1544;48.834;9.194;2023-05-10T16:36:38;0.93;;;0.60;;
3066;SDS011;1544;48.834;9.194;2023-05-10T16:39:14;0.57;;;0.57;;
3066;SDS011;1544;48.834;9.194;2023-05-10T16:41:50;0.60;;;0.60;;
3066;SDS011;1544;48.834;9.194;2023-05-10T16:44:26;0.93;;;0.67;;
3066;SDS011;1544;48.834;9.194;2023-05-10T16:47:02;0.50;;;0.50;;